createdAt,value
2022-12-04T00:08:53.378Z,22.06
2022-12-04T00:18:56.568Z,22.06
2022-12-04T00:28:59.706Z,22.07
2022-12-04T00:39:02.883Z,22.04
2022-12-04T00:49:06.031Z,22.02
2022-12-04T00:59:09.230Z,22.01
2022-12-04T01:09:12.400Z,22.01
2022-12-04T01:19:15.605Z,22.04
2022-12-04T01:29:18.744Z,22.06
2022-12-04T01:39:21.951Z,22.04
2022-12-04T02:10:20.969Z,21.99
2022-12-04T02:20:24.105Z,21.99
2022-12-04T02:30:27.345Z,22.02
2022-12-04T02:40:30.529Z,22.01
2022-12-04T02:50:33.719Z,22.02
2022-12-04T03:00:36.868Z,22.04
2022-12-04T03:10:40.063Z,22.02
2022-12-04T03:20:43.428Z,22.02
2022-12-04T03:30:46.761Z,22.02
2022-12-04T03:40:49.929Z,22.01
2022-12-04T03:50:53.231Z,21.99
2022-12-04T04:00:56.359Z,22.01
2022-12-04T04:10:59.557Z,22.02
2022-12-04T04:21:02.700Z,22.04
2022-12-04T04:31:05.936Z,22.04
2022-12-04T04:41:09.088Z,22.04
2022-12-04T04:51:12.294Z,22.02
2022-12-04T05:01:15.469Z,22.04
2022-12-04T05:11:18.669Z,22.01
2022-12-04T05:21:21.807Z,22.02
2022-12-04T05:31:25.148Z,21.99
2022-12-04T05:41:28.323Z,22.01
2022-12-04T05:51:31.511Z,22.04
2022-12-04T06:01:34.703Z,22.02
2022-12-04T06:11:37.932Z,22.02
2022-12-04T06:21:41.084Z,22.01
2022-12-04T06:31:44.498Z,21.99
2022-12-04T06:41:47.837Z,21.98
2022-12-04T06:51:51.046Z,21.98
2022-12-04T07:01:54.228Z,22.04
2022-12-04T07:11:57.406Z,22.04
2022-12-04T07:22:00.530Z,22.04
2022-12-04T07:32:03.831Z,22.02
2022-12-04T07:42:07.069Z,22.02
2022-12-04T07:52:10.254Z,21.99
2022-12-04T08:02:13.433Z,21.98
2022-12-04T08:12:16.616Z,21.98
2022-12-04T08:22:24.866Z,22.01
2022-12-04T08:32:23.720Z,22.06
2022-12-04T08:42:26.851Z,22.07
2022-12-04T08:52:30.038Z,22.07
2022-12-04T09:02:33.183Z,22.06
2022-12-04T09:12:36.369Z,22.01
2022-12-04T09:23:02.387Z,21.99
2022-12-04T09:32:43.478Z,21.98
2022-12-04T09:42:46.620Z,21.99
2022-12-04T09:52:49.813Z,22.02
2022-12-04T10:02:53.033Z,22.07
2022-12-04T10:12:56.314Z,22.09
2022-12-04T10:22:59.464Z,22.09
2022-12-04T10:33:02.647Z,22.06
2022-12-04T10:43:05.802Z,22.02
2022-12-04T10:53:13.644Z,22.01
2022-12-04T11:03:11.931Z,21.99
2022-12-04T11:13:15.125Z,22.01
2022-12-04T11:23:18.251Z,22.06
2022-12-04T11:33:21.456Z,22.09
2022-12-04T11:43:24.595Z,22.12
2022-12-04T11:53:27.835Z,22.07
2022-12-04T12:03:31.123Z,22.07
2022-12-04T12:13:34.405Z,22.07
2022-12-04T12:23:37.539Z,22.04
2022-12-04T12:33:40.729Z,22.02
2022-12-04T12:43:44.017Z,21.99
2022-12-04T12:53:47.256Z,22.02
2022-12-04T13:03:50.405Z,22.06
2022-12-04T13:13:53.605Z,22.10
2022-12-04T13:23:56.727Z,22.10
2022-12-04T13:33:59.917Z,22.07
2022-12-04T13:44:07.191Z,22.06
2022-12-04T13:54:08.013Z,22.02
2022-12-04T14:04:11.300Z,22.01
2022-12-04T14:14:14.491Z,22.01
2022-12-04T14:24:17.644Z,22.04
2022-12-04T14:34:20.894Z,22.09
2022-12-04T14:44:24.152Z,22.09
2022-12-04T14:54:27.334Z,22.09
2022-12-04T15:04:30.506Z,22.07
2022-12-04T15:14:33.735Z,22.06
2022-12-04T15:24:36.895Z,22.02
2022-12-04T15:34:40.087Z,22.01
2022-12-04T15:44:43.227Z,22.01
2022-12-04T15:54:46.419Z,22.02
2022-12-04T16:04:49.566Z,22.04
2022-12-04T16:14:52.775Z,21.92
2022-12-04T16:24:56.390Z,21.72
2022-12-04T16:34:59.781Z,21.54
2022-12-04T16:45:02.930Z,21.59
2022-12-04T16:55:06.411Z,21.67
2022-12-04T17:05:09.627Z,21.75
2022-12-04T17:15:12.816Z,21.82
2022-12-04T17:25:15.952Z,21.85
2022-12-04T17:35:19.151Z,22.07
2022-12-04T17:45:22.288Z,22.29
2022-12-04T17:55:25.479Z,22.10
2022-12-04T18:05:28.680Z,21.97
2022-12-04T18:15:31.860Z,21.91
2022-12-04T18:25:34.996Z,21.90
2022-12-04T18:35:38.184Z,21.88
2022-12-04T18:45:41.349Z,21.85
2022-12-04T18:55:44.506Z,21.83
2022-12-04T19:05:47.761Z,21.82
2022-12-04T19:15:50.935Z,21.79
2022-12-04T19:25:54.204Z,21.76
2022-12-04T19:35:57.373Z,21.75
2022-12-04T19:46:00.674Z,21.75
2022-12-04T19:56:03.895Z,21.75
2022-12-04T20:06:07.075Z,21.76
2022-12-04T20:16:10.379Z,21.76
2022-12-04T20:26:13.561Z,21.75
2022-12-04T20:36:16.743Z,21.74
2022-12-04T20:46:19.989Z,21.74
2022-12-04T20:56:23.354Z,21.71
2022-12-04T21:17:18.385Z,21.69
2022-12-04T21:27:21.724Z,21.72
2022-12-04T21:48:22.651Z,21.72
2022-12-04T21:58:20.668Z,21.71
2022-12-04T22:08:23.898Z,21.71
2022-12-04T22:18:27.074Z,21.67
2022-12-04T22:28:30.261Z,21.67
2022-12-04T22:38:36.455Z,21.66
2022-12-04T22:48:37.352Z,21.67
2022-12-04T22:58:40.537Z,21.67
2022-12-04T23:08:43.679Z,21.66
2022-12-04T23:18:46.875Z,21.66
2022-12-04T23:28:50.005Z,21.66
2022-12-04T23:38:53.196Z,21.63
2022-12-04T23:48:56.328Z,21.64
2022-12-04T23:58:59.523Z,21.64
